»·PEaware :: WAT380 KSBA-KSFO

WAT380 :: KSBA-KSFO

FLIGHT INFORMATION

Flight Status: Arrived
Operator:
Walker Air Transport
More flights by this operator :: More flights under this callsign
Pilot: Spencer M. (27733)
Aircraft: BRITISH AERO BAe-146-300
(B463)
More flights by this aircraft type
Origin: KSBA Santa Barbara Mun
United States
Destination: KSFO San Francisco Intl
United States
More flights between these airports :: More routes between these airports
Route: GVO MQO BSR BSR3
File this flight plan on PilotEdge
Remarks:
Altitude:
(Current/Filed)
22,000ft
Speed:
(Current/Filed)
444kts
Departed: 05-Oct-21 04:56 PM
Arrived: 05-Oct-21 05:40 PM
Distance/Time
Traveled:
228nm/0:44
Distance/Time
To Go:
Arrived

Flight Plot

Page will automatically refresh every two minutes.

Flight plan parsing failed; only flown route is shown


Map Options




Map Legend


Flown Route
Filed Route
Departure Airport
Arrival Airport
Navaid (VOR, NDB)
Fix

Horizontal Profiles

Position Reports

Time Latitude Longitude Heading Altitude Ground
Speed
05-Oct-21 16:35 34.425373 -119.837206 148 16ft 0kts
05-Oct-21 16:36 34.425373 -119.837206 148 16ft 0kts
05-Oct-21 16:37 34.425373 -119.837206 148 16ft 0kts
05-Oct-21 16:38 34.425373 -119.837206 148 16ft 0kts
05-Oct-21 16:39 34.425373 -119.837206 148 16ft 0kts
05-Oct-21 16:40 34.425373 -119.837206 148 16ft 0kts
05-Oct-21 16:41 34.425373 -119.837206 148 16ft 0kts
05-Oct-21 16:42 34.425373 -119.837206 148 16ft 0kts
05-Oct-21 16:43 34.425373 -119.837206 148 16ft 0kts
05-Oct-21 16:44 34.425373 -119.837206 148 16ft 0kts
05-Oct-21 16:45 34.425533 -119.837423 105 16ft 2kts
05-Oct-21 16:46 34.425311 -119.837844 91 16ft 0kts
05-Oct-21 16:47 34.425122 -119.837866 344 16ft 0kts
05-Oct-21 16:48 34.425122 -119.837866 344 16ft 0kts
05-Oct-21 16:49 34.425122 -119.837866 344 16ft 0kts
05-Oct-21 16:50 34.425122 -119.837866 344 16ft 0kts
05-Oct-21 16:51 34.425709 -119.838049 345 17ft 5kts
05-Oct-21 16:52 34.426834 -119.837656 101 17ft 6kts
05-Oct-21 16:53 34.426841 -119.834776 50 16ft 4kts
05-Oct-21 16:54 34.427055 -119.834619 12 16ft 0kts
05-Oct-21 16:54 34.427056 -119.834619 12 16ft 0kts
05-Oct-21 16:56 34.427825 -119.838290 268 18ft 71kts
05-Oct-21 16:57 34.425210 -119.887666 262 830ft 209kts
05-Oct-21 16:58 34.415709 -119.967424 261 2681ft 258kts
05-Oct-21 16:58 34.406427 -120.039568 261 4027ft 266kts
05-Oct-21 16:59 34.426424 -120.119556 324 6578ft 273kts
05-Oct-21 17:00 34.494766 -120.167534 329 8009ft 311kts
05-Oct-21 17:02 34.587532 -120.236852 328 9403ft 347kts
05-Oct-21 17:02 34.656846 -120.290210 328 11181ft 361kts
05-Oct-21 17:03 34.743958 -120.357979 327 13236ft 372kts
05-Oct-21 17:04 34.831748 -120.426660 327 15116ft 378kts
05-Oct-21 17:05 34.920681 -120.496467 326 16685ft 386kts
05-Oct-21 17:06 35.011299 -120.567812 326 18149ft 392kts
05-Oct-21 17:07 35.103380 -120.640511 325 19383ft 398kts
05-Oct-21 17:08 35.197138 -120.714582 325 20483ft 404kts
05-Oct-21 17:09 35.288357 -120.794730 318 21459ft 408kts
05-Oct-21 17:10 35.378682 -120.880704 319 22016ft 414kts
05-Oct-21 17:11 35.469315 -120.967998 319 21990ft 416kts
05-Oct-21 17:12 35.559871 -121.055274 319 21981ft 414kts
05-Oct-21 17:14 35.669920 -121.150441 320 21992ft 415kts
05-Oct-21 17:14 35.745803 -121.223498 319 21999ft 417kts
05-Oct-21 17:15 35.839110 -121.312545 319 21999ft 419kts
05-Oct-21 17:16 35.931342 -121.400704 319 22040ft 419kts
05-Oct-21 17:17 36.023358 -121.489018 319 22052ft 420kts
05-Oct-21 17:18 36.115522 -121.577001 320 22105ft 421kts
05-Oct-21 17:19 36.209074 -121.664990 319 22044ft 418kts
05-Oct-21 17:20 36.302872 -121.748152 321 22046ft 415kts
05-Oct-21 17:21 36.396264 -121.830881 319 22046ft 411kts
05-Oct-21 17:22 36.492672 -121.903488 347 21362ft 418kts
05-Oct-21 17:23 36.605942 -121.928642 346 19951ft 408kts
05-Oct-21 17:24 36.715381 -121.956190 346 17580ft 396kts
05-Oct-21 17:25 36.821389 -121.983520 346 14735ft 384kts
05-Oct-21 17:26 36.924143 -122.010534 346 11528ft 372kts
05-Oct-21 17:27 37.021742 -122.036169 346 10008ft 354kts
05-Oct-21 17:28 37.119140 -122.061828 346 8791ft 355kts
05-Oct-21 17:29 37.208371 -122.085269 345 6052ft 307kts
05-Oct-21 17:30 37.287120 -122.106119 345 5998ft 284kts
05-Oct-21 17:31 37.362634 -122.126159 344 5997ft 270kts
05-Oct-21 17:32 37.437923 -122.146241 344 6002ft 283kts
05-Oct-21 17:33 37.514266 -122.164407 346 4905ft 277kts
05-Oct-21 17:34 37.569761 -122.210971 264 3571ft 253kts
05-Oct-21 17:35 37.583886 -122.289449 310 836ft 253kts
05-Oct-21 17:36 37.592414 -122.349965 198 1195ft 149kts
05-Oct-21 17:37 37.575077 -122.378952 298 926ft 120kts
05-Oct-21 17:38 37.605131 -122.384738 21 108ft 129kts
05-Oct-21 17:39 37.624847 -122.372366 321 18ft 13kts
05-Oct-21 17:40 37.622833 -122.375245 260 17ft 22kts

Navigation Log

Ident Type
Flight plan parsing failed, navigation log unavailable